createdAt,value
2019-03-17T00:00:14.518Z,60.30
2019-03-17T00:02:42.731Z,62.17
2019-03-17T00:05:11.108Z,62.73
2019-03-17T00:07:39.324Z,61.03
2019-03-17T00:10:07.781Z,62.39
2019-03-17T00:12:35.994Z,63.18
2019-03-17T00:15:06.056Z,62.72
2019-03-17T00:17:34.353Z,62.75
2019-03-17T00:20:02.718Z,63.25
2019-03-17T00:22:30.942Z,61.68
2019-03-17T00:25:08.579Z,61.80
2019-03-17T00:27:29.208Z,63.12
2019-03-17T00:29:58.484Z,62.74
2019-03-17T00:32:26.671Z,63.13
2019-03-17T00:34:54.843Z,61.76
2019-03-17T00:37:23.398Z,63.64
2019-03-17T00:39:51.569Z,61.85
2019-03-17T00:42:19.934Z,60.69
2019-03-17T00:44:48.142Z,62.25
2019-03-17T00:47:16.421Z,60.85
2019-03-17T00:49:44.877Z,63.26
2019-03-17T00:52:13.190Z,62.58
2019-03-17T00:54:41.685Z,61.90
2019-03-17T00:57:10.650Z,62.78
2019-03-17T00:59:39.125Z,62.81
2019-03-17T01:02:07.398Z,61.83
2019-03-17T01:04:35.834Z,63.11
2019-03-17T01:07:03.943Z,63.27
2019-03-17T01:09:32.174Z,64.74
2019-03-17T01:12:00.614Z,62.48
2019-03-17T01:14:28.898Z,62.67
2019-03-17T01:16:57.162Z,62.97
2019-03-17T01:19:25.468Z,63.05
2019-03-17T01:21:53.814Z,62.83
2019-03-17T01:24:22.009Z,63.49
2019-03-17T01:26:50.554Z,62.66
2019-03-17T01:29:18.955Z,63.09
2019-03-17T01:31:47.703Z,61.61
2019-03-17T01:34:15.882Z,63.23
2019-03-17T01:36:44.195Z,64.46
2019-03-17T01:39:12.764Z,63.54
2019-03-17T01:41:40.915Z,63.63
2019-03-17T01:44:09.132Z,62.31
2019-03-17T01:46:37.295Z,62.11
2019-03-17T01:49:05.505Z,62.70
2019-03-17T01:51:33.739Z,62.77
2019-03-17T01:54:02.016Z,61.83
2019-03-17T01:56:30.290Z,62.33
2019-03-17T01:58:58.507Z,63.08
2019-03-17T02:01:26.727Z,61.66
2019-03-17T02:03:55.329Z,61.18
2019-03-17T02:06:23.562Z,62.71
2019-03-17T02:08:51.676Z,62.60
2019-03-17T02:11:20.087Z,62.13
2019-03-17T02:13:48.265Z,61.53
2019-03-17T02:16:16.660Z,62.61
2019-03-17T02:18:44.813Z,61.95
2019-03-17T02:21:13.110Z,63.40
2019-03-17T02:23:42.553Z,62.48
2019-03-17T02:26:10.856Z,61.32
2019-03-17T02:28:39.040Z,63.91
2019-03-17T02:31:07.288Z,60.83
2019-03-17T02:33:35.501Z,61.87
2019-03-17T02:36:03.690Z,62.22
2019-03-17T02:38:32.000Z,64.48
2019-03-17T02:41:00.149Z,63.12
2019-03-17T02:43:28.206Z,62.18
2019-03-17T02:45:56.436Z,62.95
2019-03-17T02:48:24.656Z,61.90
2019-03-17T02:50:52.837Z,63.47
2019-03-17T02:53:21.063Z,63.00
2019-03-17T02:55:49.244Z,62.80
2019-03-17T02:58:17.587Z,62.34
2019-03-17T03:00:45.802Z,61.56
2019-03-17T03:03:14.065Z,64.29
2019-03-17T03:05:54.073Z,63.07
2019-03-17T03:08:12.168Z,62.30
2019-03-17T03:10:40.329Z,62.24
2019-03-17T03:13:08.666Z,62.69
2019-03-17T03:15:36.929Z,62.21
2019-03-17T03:18:05.216Z,63.01
2019-03-17T03:20:33.446Z,63.21
2019-03-17T03:23:01.552Z,61.19
2019-03-17T03:25:29.848Z,61.96
2019-03-17T03:27:58.104Z,62.32
2019-03-17T03:30:26.270Z,62.67
2019-03-17T03:32:54.392Z,63.17
2019-03-17T03:35:22.581Z,62.80
2019-03-17T03:37:51.101Z,61.74
2019-03-17T03:40:19.321Z,63.00
2019-03-17T03:42:47.537Z,63.14
2019-03-17T03:45:15.960Z,63.47
2019-03-17T03:47:44.393Z,62.09
2019-03-17T03:50:12.764Z,62.15
2019-03-17T03:52:40.963Z,63.28
2019-03-17T03:55:09.236Z,63.57
2019-03-17T03:57:37.397Z,61.28
2019-03-17T04:00:06.352Z,62.55
2019-03-17T04:02:34.446Z,63.16
2019-03-17T04:05:02.797Z,61.05
2019-03-17T04:07:31.006Z,63.86
2019-03-17T04:09:59.134Z,62.11
2019-03-17T04:12:27.299Z,61.70
2019-03-17T04:14:55.443Z,61.70
2019-03-17T04:17:23.683Z,62.92
2019-03-17T04:19:51.853Z,63.15
2019-03-17T04:22:20.093Z,60.41
2019-03-17T04:24:48.263Z,61.65
2019-03-17T04:27:16.550Z,64.44
2019-03-17T04:29:44.944Z,63.11
2019-03-17T04:32:13.324Z,63.00
2019-03-17T04:34:41.483Z,63.72
2019-03-17T04:37:09.645Z,64.08
2019-03-17T04:39:37.759Z,63.74
2019-03-17T04:42:06.026Z,63.74
2019-03-17T04:44:34.293Z,61.83
2019-03-17T04:47:02.494Z,62.41
2019-03-17T04:49:30.703Z,62.84
2019-03-17T04:51:58.963Z,61.87
2019-03-17T04:54:27.477Z,64.33
2019-03-17T04:56:55.662Z,64.09
2019-03-17T04:59:23.802Z,62.79
2019-03-17T05:01:52.049Z,64.05
2019-03-17T05:04:20.209Z,63.55
2019-03-17T05:06:53.027Z,62.63
2019-03-17T05:09:18.284Z,62.82
2019-03-17T05:11:46.647Z,62.54
2019-03-17T05:14:14.798Z,62.82
2019-03-17T05:16:42.930Z,63.48
2019-03-17T05:19:11.342Z,61.26
2019-03-17T05:21:39.587Z,61.44
2019-03-17T05:24:07.858Z,61.55
2019-03-17T05:26:36.204Z,61.14
2019-03-17T05:29:04.419Z,63.19
2019-03-17T05:31:32.506Z,61.78
2019-03-17T05:34:00.679Z,61.26
2019-03-17T05:36:28.888Z,62.72
2019-03-17T05:38:57.167Z,62.71
2019-03-17T05:41:25.447Z,63.23
2019-03-17T05:43:53.720Z,64.07
2019-03-17T05:46:21.911Z,61.29
2019-03-17T05:48:50.540Z,62.11
2019-03-17T05:51:18.703Z,60.97
2019-03-17T05:53:46.945Z,62.89
2019-03-17T05:56:15.187Z,61.01
2019-03-17T05:58:43.430Z,61.76
2019-03-17T06:01:11.649Z,62.26
2019-03-17T06:03:39.890Z,61.96
2019-03-17T06:06:08.322Z,61.38
2019-03-17T06:08:36.689Z,61.54
2019-03-17T06:11:05.012Z,62.64
2019-03-17T06:13:33.156Z,62.23
2019-03-17T06:16:01.350Z,62.96
2019-03-17T06:18:29.568Z,63.13
2019-03-17T06:20:57.664Z,63.11
2019-03-17T06:23:25.784Z,62.71
2019-03-17T06:25:53.904Z,63.04
2019-03-17T06:28:22.179Z,62.12
2019-03-17T06:30:50.412Z,62.22
2019-03-17T06:33:18.598Z,62.68
2019-03-17T06:35:46.765Z,62.99
2019-03-17T06:38:14.988Z,63.26
2019-03-17T06:40:43.117Z,63.55
2019-03-17T06:43:11.609Z,64.73
2019-03-17T06:45:39.963Z,64.79
2019-03-17T06:48:08.132Z,65.14
2019-03-17T06:50:36.340Z,64.26
2019-03-17T06:53:04.529Z,64.56
2019-03-17T06:55:32.761Z,64.77
2019-03-17T06:58:01.317Z,65.14
2019-03-17T07:00:29.496Z,64.81
2019-03-17T07:02:57.713Z,65.13
2019-03-17T07:05:25.913Z,65.11
2019-03-17T07:07:54.106Z,64.68
2019-03-17T07:10:22.291Z,64.45
2019-03-17T07:12:50.521Z,65.44
2019-03-17T07:15:18.803Z,65.63
2019-03-17T07:17:47.101Z,65.70
2019-03-17T07:20:15.377Z,66.79
2019-03-17T07:22:43.782Z,65.73
2019-03-17T07:25:11.968Z,66.57
2019-03-17T07:27:40.208Z,66.57
2019-03-17T07:30:09.718Z,67.56
2019-03-17T07:32:37.896Z,67.97
2019-03-17T07:35:06.877Z,67.91
2019-03-17T07:37:35.079Z,69.29
2019-03-17T07:40:03.349Z,68.99
2019-03-17T07:42:32.651Z,68.53
2019-03-17T07:45:00.996Z,68.74
2019-03-17T07:47:29.242Z,69.28
2019-03-17T07:49:57.539Z,70.91
2019-03-17T07:52:25.649Z,69.05
2019-03-17T07:54:53.894Z,69.11
2019-03-17T07:57:22.420Z,69.52
2019-03-17T07:59:50.554Z,69.40
2019-03-17T08:02:18.740Z,69.35
2019-03-17T08:04:46.895Z,69.53
2019-03-17T08:07:15.098Z,68.64
2019-03-17T08:09:43.334Z,68.91
2019-03-17T08:12:11.529Z,69.95
2019-03-17T08:14:39.877Z,69.57
2019-03-17T08:17:08.143Z,68.49
2019-03-17T08:19:36.449Z,69.50
2019-03-17T08:22:04.628Z,69.39
2019-03-17T08:24:32.827Z,68.50
2019-03-17T08:27:01.045Z,68.65
2019-03-17T08:29:29.247Z,68.71
2019-03-17T08:31:57.672Z,68.56
2019-03-17T08:34:25.905Z,68.87
2019-03-17T08:36:54.176Z,68.41
2019-03-17T08:39:22.463Z,69.50
2019-03-17T08:41:50.749Z,69.33
2019-03-17T08:44:19.046Z,70.25
2019-03-17T08:46:47.342Z,70.34
2019-03-17T08:49:15.680Z,71.32
2019-03-17T08:51:44.000Z,70.16
2019-03-17T08:54:12.476Z,70.96
2019-03-17T08:56:40.772Z,71.69
2019-03-17T08:59:08.922Z,71.73
2019-03-17T09:01:37.138Z,70.65
2019-03-17T09:04:05.344Z,71.51
2019-03-17T09:06:33.835Z,71.92
2019-03-17T09:09:02.232Z,72.13
2019-03-17T09:11:30.515Z,71.82
2019-03-17T09:13:58.846Z,70.89
2019-03-17T09:16:27.388Z,71.33
2019-03-17T09:18:55.742Z,72.71
2019-03-17T09:21:24.161Z,75.72
2019-03-17T09:23:52.452Z,73.91
2019-03-17T09:26:20.988Z,76.37
2019-03-17T09:28:49.185Z,75.40
2019-03-17T09:31:17.436Z,74.01
2019-03-17T09:33:45.837Z,73.32
2019-03-17T09:36:14.117Z,75.11
2019-03-17T09:38:47.135Z,74.97
2019-03-17T09:41:12.561Z,75.67
2019-03-17T09:43:42.095Z,76.41
2019-03-17T09:46:10.390Z,73.89
2019-03-17T09:48:38.699Z,73.24
2019-03-17T09:51:07.193Z,72.52
2019-03-17T09:53:35.356Z,72.43
2019-03-17T09:56:03.629Z,71.89
2019-03-17T09:58:32.010Z,69.56
2019-03-17T10:01:00.749Z,71.36
2019-03-17T10:03:29.573Z,71.50
2019-03-17T10:05:57.833Z,71.58
2019-03-17T10:08:26.434Z,70.72
2019-03-17T10:10:54.898Z,73.21
2019-03-17T10:13:23.588Z,71.13
2019-03-17T10:15:51.784Z,72.29
2019-03-17T10:18:19.983Z,71.68
2019-03-17T10:20:48.340Z,70.50
2019-03-17T10:23:16.731Z,71.36
2019-03-17T10:25:44.982Z,69.68
2019-03-17T10:28:13.479Z,69.81
2019-03-17T10:30:41.727Z,69.72
2019-03-17T10:33:10.070Z,70.35
2019-03-17T10:35:38.437Z,71.15
2019-03-17T10:38:06.935Z,70.35
2019-03-17T10:40:35.239Z,70.33
2019-03-17T10:43:03.580Z,68.92
2019-03-17T10:45:31.887Z,67.84
2019-03-17T10:48:00.103Z,69.45
2019-03-17T10:50:28.535Z,66.14
2019-03-17T10:52:57.320Z,68.20
2019-03-17T10:55:27.295Z,68.21
2019-03-17T10:57:55.565Z,62.95
2019-03-17T11:00:24.497Z,65.05
2019-03-17T11:02:52.761Z,68.07
2019-03-17T11:05:21.425Z,66.94
2019-03-17T11:07:49.768Z,62.76
2019-03-17T11:10:18.197Z,67.37
2019-03-17T11:12:46.580Z,67.15
2019-03-17T11:15:15.049Z,66.73
2019-03-17T11:17:43.496Z,67.79
2019-03-17T11:20:11.679Z,62.89
2019-03-17T11:22:40.182Z,61.96
2019-03-17T11:25:09.273Z,68.08
2019-03-17T11:27:37.783Z,60.78
2019-03-17T11:30:07.036Z,67.95
2019-03-17T11:32:35.539Z,64.97
2019-03-17T11:35:04.548Z,67.29
2019-03-17T11:37:33.014Z,62.98
2019-03-17T11:40:01.435Z,68.77
2019-03-17T11:42:30.006Z,68.12
2019-03-17T11:44:58.398Z,61.47
2019-03-17T11:47:26.846Z,61.41
2019-03-17T11:49:55.360Z,60.37
2019-03-17T11:52:23.865Z,63.77
2019-03-17T11:54:52.143Z,60.02
2019-03-17T11:57:20.416Z,58.86
2019-03-17T11:59:48.949Z,61.94
2019-03-17T12:02:26.034Z,59.43
2019-03-17T12:04:47.164Z,66.67
2019-03-17T12:07:16.426Z,66.66
2019-03-17T12:09:50.359Z,63.33
2019-03-17T12:12:15.674Z,61.75
2019-03-17T12:14:44.258Z,64.37
2019-03-17T12:17:12.806Z,63.31
2019-03-17T12:19:41.209Z,64.82
2019-03-17T12:22:09.724Z,67.64
2019-03-17T12:24:37.958Z,69.13
2019-03-17T12:27:06.507Z,64.03
2019-03-17T12:29:34.846Z,63.83
2019-03-17T12:32:03.315Z,68.70
2019-03-17T12:34:31.733Z,61.50
2019-03-17T12:37:00.560Z,65.70
2019-03-17T12:39:29.338Z,60.56
2019-03-17T12:41:58.003Z,67.65
2019-03-17T12:44:26.958Z,67.72
2019-03-17T12:46:55.531Z,60.90
2019-03-17T12:49:24.344Z,60.50
2019-03-17T12:51:53.269Z,62.66
2019-03-17T12:54:21.719Z,65.33
2019-03-17T12:56:50.281Z,64.71
2019-03-17T12:59:19.383Z,65.97
2019-03-17T13:01:47.886Z,63.95
2019-03-17T13:04:16.518Z,62.07
2019-03-17T13:06:45.270Z,64.51
2019-03-17T13:09:14.999Z,67.55
2019-03-17T13:11:44.159Z,62.79
2019-03-17T13:14:12.571Z,64.63
2019-03-17T13:16:41.195Z,63.89
2019-03-17T13:19:09.786Z,62.22
2019-03-17T13:21:38.396Z,60.61
2019-03-17T13:24:07.187Z,59.94
2019-03-17T13:26:35.814Z,63.57
2019-03-17T13:29:04.401Z,59.80
2019-03-17T13:31:33.362Z,61.34
2019-03-17T13:34:02.099Z,62.02
2019-03-17T13:36:30.560Z,65.62
2019-03-17T13:39:00.040Z,66.55
2019-03-17T13:41:28.471Z,67.10
2019-03-17T13:43:57.323Z,66.08
2019-03-17T13:46:25.936Z,63.76
2019-03-17T13:48:54.523Z,68.52
2019-03-17T13:51:23.122Z,61.70
2019-03-17T13:53:51.790Z,67.58
2019-03-17T13:56:20.188Z,67.60
2019-03-17T13:58:48.516Z,66.02
2019-03-17T14:01:17.241Z,67.03
2019-03-17T14:03:46.188Z,68.69
2019-03-17T14:06:14.491Z,71.03
2019-03-17T14:08:42.866Z,69.21
2019-03-17T14:11:11.346Z,69.36
2019-03-17T14:13:39.857Z,64.26
2019-03-17T14:16:08.543Z,65.12
2019-03-17T14:18:37.647Z,61.72
2019-03-17T14:21:06.577Z,62.15
2019-03-17T14:23:35.176Z,65.59
2019-03-17T14:26:04.364Z,59.94
2019-03-17T14:28:32.805Z,61.23
2019-03-17T14:31:01.469Z,59.83
2019-03-17T14:33:31.517Z,57.96
2019-03-17T14:36:00.178Z,61.63
2019-03-17T14:38:28.690Z,60.21
2019-03-17T14:40:57.545Z,61.32
2019-03-17T14:43:26.221Z,61.11
2019-03-17T14:45:54.787Z,65.19
2019-03-17T14:48:23.195Z,60.10
2019-03-17T14:50:51.972Z,58.00
2019-03-17T14:53:20.501Z,60.16
2019-03-17T14:55:48.947Z,65.89
2019-03-17T14:58:17.721Z,67.39
2019-03-17T15:00:46.494Z,72.81
2019-03-17T15:03:15.190Z,68.33
2019-03-17T15:05:44.346Z,69.42
2019-03-17T15:08:13.108Z,72.74
2019-03-17T15:10:42.540Z,74.33
2019-03-17T15:13:11.442Z,73.36
2019-03-17T15:15:40.182Z,75.17
2019-03-17T15:18:09.254Z,73.61
2019-03-17T15:20:38.400Z,71.61
2019-03-17T15:23:07.257Z,72.94
2019-03-17T15:25:36.144Z,70.41
2019-03-17T15:28:05.541Z,70.72
2019-03-17T15:30:36.340Z,65.85
2019-03-17T15:33:05.156Z,68.80
2019-03-17T15:35:34.048Z,70.68
2019-03-17T15:38:02.758Z,68.55
2019-03-17T15:40:31.436Z,65.07
2019-03-17T15:42:59.986Z,65.01
2019-03-17T15:45:28.823Z,66.67
2019-03-17T15:47:57.189Z,74.14
2019-03-17T15:50:25.819Z,67.37
2019-03-17T15:52:54.943Z,64.40
2019-03-17T15:55:23.782Z,68.00
2019-03-17T15:57:52.411Z,68.01
2019-03-17T16:00:25.286Z,61.82
2019-03-17T16:02:52.307Z,62.42
2019-03-17T16:05:21.197Z,69.89
2019-03-17T16:07:50.819Z,60.67
2019-03-17T16:10:20.458Z,62.72
2019-03-17T16:12:49.997Z,61.83
2019-03-17T16:15:18.991Z,61.68
2019-03-17T16:17:48.481Z,63.18
2019-03-17T16:20:18.513Z,62.40
2019-03-17T16:22:47.135Z,64.25
2019-03-17T16:25:17.002Z,69.20
2019-03-17T16:27:45.907Z,59.56
2019-03-17T16:30:17.170Z,60.94
2019-03-17T16:32:47.128Z,63.80
2019-03-17T16:35:16.612Z,70.04
2019-03-17T16:37:45.524Z,69.56
2019-03-17T16:40:17.402Z,65.83
2019-03-17T16:43:05.428Z,68.57
2019-03-17T16:45:34.208Z,62.90
2019-03-17T16:48:02.798Z,59.84
2019-03-17T16:50:31.058Z,66.32
2019-03-17T16:53:00.251Z,66.22
2019-03-17T16:55:28.910Z,64.31
2019-03-17T16:57:57.813Z,62.79
2019-03-17T17:00:27.024Z,62.48
2019-03-17T17:02:55.757Z,65.97
2019-03-17T17:05:26.198Z,62.11
2019-03-17T17:07:54.523Z,67.08
2019-03-17T17:10:24.101Z,67.18
2019-03-17T17:12:54.070Z,65.79
2019-03-17T17:15:24.707Z,64.13
2019-03-17T17:17:52.869Z,66.18
2019-03-17T17:20:26.393Z,65.17
2019-03-17T17:22:56.130Z,66.13
2019-03-17T17:25:25.791Z,66.87
2019-03-17T17:27:55.207Z,68.11
2019-03-17T17:30:24.357Z,65.11
2019-03-17T17:32:53.575Z,65.35
2019-03-17T17:35:24.693Z,66.88
2019-03-17T17:37:54.215Z,67.56
2019-03-17T17:40:24.310Z,63.71
2019-03-17T17:42:57.059Z,67.26
2019-03-17T17:45:27.083Z,67.98
2019-03-17T17:47:57.159Z,65.53
2019-03-17T17:50:27.592Z,68.11
2019-03-17T17:52:57.811Z,65.61
2019-03-17T17:55:26.838Z,70.52
2019-03-17T17:57:56.527Z,69.92
2019-03-17T18:00:28.008Z,71.31
2019-03-17T18:02:58.749Z,70.07
2019-03-17T18:05:29.076Z,72.03
2019-03-17T18:08:01.674Z,71.23
2019-03-17T18:10:31.606Z,73.16
2019-03-17T18:13:07.889Z,73.09
2019-03-17T18:16:01.985Z,75.46
2019-03-17T18:18:32.000Z,73.30
2019-03-17T18:21:02.227Z,74.34
2019-03-17T18:23:31.205Z,70.52
2019-03-17T18:26:01.396Z,71.12
2019-03-17T18:28:31.414Z,69.97
2019-03-17T18:31:03.489Z,70.30
2019-03-17T18:33:33.566Z,70.81
2019-03-17T18:36:04.117Z,70.42
2019-03-17T18:38:33.150Z,70.52
2019-03-17T18:41:03.635Z,69.09
2019-03-17T18:43:33.454Z,69.47
2019-03-17T18:46:07.249Z,69.65
2019-03-17T18:48:36.845Z,72.19
2019-03-17T18:51:06.723Z,73.10
2019-03-17T18:53:35.658Z,73.12
2019-03-17T18:56:05.661Z,70.22
2019-03-17T18:58:37.249Z,70.07
2019-03-17T19:01:07.106Z,70.98
2019-03-17T19:03:36.505Z,70.53
2019-03-17T19:06:06.446Z,71.13
2019-03-17T19:08:38.528Z,70.78
2019-03-17T19:11:08.468Z,69.78
2019-03-17T19:13:39.499Z,70.20
2019-03-17T19:16:09.515Z,69.88
2019-03-17T19:18:39.175Z,69.74
2019-03-17T19:21:09.237Z,67.85
2019-03-17T19:23:38.976Z,67.86
2019-03-17T19:26:09.687Z,69.16
2019-03-17T19:28:39.926Z,68.62
2019-03-17T19:31:09.942Z,68.63
2019-03-17T19:33:40.226Z,67.49
2019-03-17T19:36:23.690Z,67.62
2019-03-17T19:38:52.983Z,68.83
2019-03-17T19:41:23.103Z,70.14
2019-03-17T19:43:54.601Z,70.00
2019-03-17T19:46:24.989Z,69.52
2019-03-17T19:49:14.931Z,67.46
2019-03-17T19:51:46.401Z,67.69
2019-03-17T19:54:15.807Z,69.93
2019-03-17T19:56:44.727Z,68.05
2019-03-17T19:59:14.362Z,67.62
2019-03-17T20:01:44.004Z,70.39
2019-03-17T20:04:13.706Z,69.70
2019-03-17T20:06:43.075Z,68.87
2019-03-17T20:09:13.893Z,67.26
2019-03-17T20:11:53.003Z,71.03
2019-03-17T20:14:21.850Z,69.77
2019-03-17T20:16:51.168Z,70.22
2019-03-17T20:19:20.946Z,67.40
2019-03-17T20:21:50.136Z,69.15
2019-03-17T20:24:19.271Z,70.75
2019-03-17T20:26:48.117Z,69.73
2019-03-17T20:29:17.356Z,69.07
2019-03-17T20:31:47.319Z,67.31
2019-03-17T20:34:16.952Z,69.39
2019-03-17T20:36:46.880Z,67.19
2019-03-17T20:39:16.239Z,68.05
2019-03-17T20:41:45.954Z,69.31
2019-03-17T20:44:15.788Z,67.68
2019-03-17T20:46:45.883Z,67.29
2019-03-17T20:49:15.421Z,68.85
2019-03-17T20:51:44.637Z,67.04
2019-03-17T20:54:14.087Z,67.47
2019-03-17T20:56:44.354Z,69.90
2019-03-17T20:59:13.459Z,69.19
2019-03-17T21:01:42.880Z,69.17
2019-03-17T21:04:12.013Z,68.63
2019-03-17T21:06:40.289Z,67.51
2019-03-17T21:09:09.517Z,69.39
2019-03-17T21:11:38.145Z,67.68
2019-03-17T21:14:06.599Z,69.23
2019-03-17T21:16:35.444Z,69.76
2019-03-17T21:19:07.114Z,71.01
2019-03-17T21:21:35.714Z,69.88
2019-03-17T21:24:04.552Z,70.03
2019-03-17T21:26:33.947Z,69.54
2019-03-17T21:29:02.687Z,70.71
2019-03-17T21:31:31.884Z,70.86
2019-03-17T21:34:00.438Z,70.43
2019-03-17T21:36:48.132Z,71.79
2019-03-17T21:39:17.994Z,70.74
2019-03-17T21:41:46.908Z,71.59
2019-03-17T21:44:15.454Z,68.20
2019-03-17T21:46:44.026Z,71.82
2019-03-17T21:49:12.403Z,69.76
2019-03-17T21:51:40.847Z,70.98
2019-03-17T21:54:09.500Z,70.03
2019-03-17T21:56:37.876Z,70.58
2019-03-17T21:59:06.450Z,69.49
2019-03-17T22:01:35.129Z,69.64
2019-03-17T22:04:03.543Z,69.92
2019-03-17T22:06:32.491Z,68.46
2019-03-17T22:09:01.233Z,70.10
2019-03-17T22:11:29.685Z,67.48
2019-03-17T22:13:58.191Z,71.07
2019-03-17T22:16:26.547Z,70.80
2019-03-17T22:18:56.623Z,71.21
2019-03-17T22:21:25.024Z,70.61
2019-03-17T22:23:53.454Z,68.81
2019-03-17T22:26:22.311Z,67.97
2019-03-17T22:28:50.568Z,70.44
2019-03-17T22:31:19.192Z,70.30
2019-03-17T22:33:47.630Z,70.46
2019-03-17T22:36:16.058Z,69.85
2019-03-17T22:38:44.380Z,70.46
2019-03-17T22:41:12.619Z,69.68
2019-03-17T22:43:42.787Z,70.34
2019-03-17T22:46:11.215Z,71.59
2019-03-17T22:48:39.422Z,71.19
2019-03-17T22:51:07.765Z,70.79
2019-03-17T22:53:36.258Z,72.17
2019-03-17T22:56:04.647Z,70.92
2019-03-17T22:58:32.961Z,71.06
2019-03-17T23:01:01.708Z,71.74
2019-03-17T23:03:29.942Z,72.04
2019-03-17T23:05:58.219Z,70.18
2019-03-17T23:08:26.415Z,71.14
2019-03-17T23:10:54.794Z,71.65
2019-03-17T23:13:23.039Z,71.35
2019-03-17T23:15:51.268Z,71.41
2019-03-17T23:18:19.602Z,69.53
2019-03-17T23:20:47.873Z,69.88
2019-03-17T23:23:16.085Z,71.43
2019-03-17T23:25:44.309Z,71.17
2019-03-17T23:28:12.536Z,70.84
2019-03-17T23:30:40.704Z,71.83
2019-03-17T23:33:08.963Z,69.80
2019-03-17T23:35:37.337Z,72.09
2019-03-17T23:38:05.852Z,69.38
2019-03-17T23:40:34.013Z,69.41
2019-03-17T23:43:02.192Z,69.92
2019-03-17T23:45:30.478Z,71.01
2019-03-17T23:47:58.669Z,71.10
2019-03-17T23:50:26.982Z,70.78
2019-03-17T23:52:55.257Z,70.67
2019-03-17T23:55:23.522Z,71.42
2019-03-17T23:57:51.888Z,71.02
